createdAt,value
2018-12-22T00:04:31.303Z,95764.00
2018-12-22T00:09:37.794Z,95754.00
2018-12-22T00:14:45.014Z,95768.00
2018-12-22T00:19:54.465Z,95753.00
2018-12-22T00:25:04.795Z,95748.00
2018-12-22T00:30:12.810Z,95755.00
2018-12-22T00:35:25.831Z,95760.00
2018-12-22T00:40:34.890Z,95736.00
2018-12-22T00:45:42.152Z,95754.00
2018-12-22T00:50:54.526Z,95749.00
2018-12-22T00:56:03.311Z,95753.00
2018-12-22T01:01:10.026Z,95767.00
2018-12-22T01:06:22.395Z,95781.00
2018-12-22T01:11:32.250Z,95782.00
2018-12-22T01:16:39.311Z,95780.00
2018-12-22T01:21:48.567Z,95782.00
2018-12-22T01:26:57.861Z,95803.00
2018-12-22T01:32:04.545Z,95794.00
2018-12-22T01:37:14.167Z,95802.00
2018-12-22T01:42:23.066Z,95805.00
2018-12-22T01:47:35.343Z,95804.00
2018-12-22T01:52:44.695Z,95801.00
2018-12-22T01:57:53.303Z,95800.00
2018-12-22T02:03:02.920Z,95811.00
2018-12-22T02:08:12.526Z,95783.00
2018-12-22T02:13:21.920Z,95809.00
2018-12-22T02:18:30.204Z,95809.00
2018-12-22T02:23:39.543Z,95806.00
2018-12-22T02:28:56.535Z,95802.00
2018-12-22T02:34:01.491Z,95819.00
2018-12-22T02:39:12.203Z,95806.00
2018-12-22T02:44:26.654Z,95813.00
2018-12-22T02:49:35.184Z,95820.00
2018-12-22T02:54:44.191Z,95814.00
2018-12-22T02:59:51.534Z,95832.00
2018-12-22T03:04:58.395Z,95806.00
2018-12-22T03:10:08.773Z,95816.00
2018-12-22T03:15:18.139Z,95802.00
2018-12-22T03:20:28.463Z,95788.00
2018-12-22T03:25:40.132Z,95783.00
2018-12-22T03:30:48.932Z,95778.00
2018-12-22T03:36:01.830Z,95786.00
2018-12-22T03:41:11.518Z,95780.00
2018-12-22T03:46:21.131Z,95784.00
2018-12-22T03:51:30.551Z,95774.00
2018-12-22T03:56:42.082Z,95791.00
2018-12-22T04:07:36.482Z,95784.00
2018-12-22T04:12:45.768Z,95775.00
2018-12-22T04:17:54.488Z,95787.00
2018-12-22T04:23:02.755Z,95761.00
2018-12-22T04:28:11.303Z,95761.00
2018-12-22T04:33:21.974Z,95756.00
2018-12-22T04:38:28.815Z,95737.00
2018-12-22T04:43:38.568Z,95745.00
2018-12-22T04:48:51.206Z,95757.00
2018-12-22T04:53:57.517Z,95754.00
2018-12-22T04:59:08.279Z,95747.00
2018-12-22T05:04:14.330Z,95765.00
2018-12-22T05:09:23.634Z,95770.00
2018-12-22T05:14:31.595Z,95755.00
2018-12-22T05:19:41.508Z,95767.00
2018-12-22T05:24:50.066Z,95779.00
2018-12-22T05:30:01.681Z,95775.00
2018-12-22T05:35:10.811Z,95790.00
2018-12-22T05:40:17.899Z,95746.00
2018-12-22T05:45:25.736Z,95770.00
2018-12-22T05:50:33.189Z,95769.00
2018-12-22T05:55:42.874Z,95785.00
2018-12-22T06:00:50.625Z,95780.00
2018-12-22T06:06:01.165Z,95781.00
2018-12-22T06:11:08.795Z,95769.00
2018-12-22T06:16:17.064Z,95760.00
2018-12-22T06:21:27.229Z,95778.00
2018-12-22T06:26:36.501Z,95780.00
2018-12-22T06:31:48.476Z,95780.00
2018-12-22T06:36:57.685Z,95794.00
2018-12-22T06:42:07.256Z,95801.00
2018-12-22T06:47:15.565Z,95825.00
2018-12-22T06:52:25.289Z,95822.00
2018-12-22T06:57:35.831Z,95826.00
2018-12-22T07:02:44.157Z,95846.00
2018-12-22T07:07:54.781Z,95873.00
2018-12-22T07:13:03.289Z,95877.00
2018-12-22T07:18:15.092Z,95840.00
2018-12-22T07:23:27.534Z,95891.00
2018-12-22T07:33:55.929Z,95875.00
2018-12-22T07:39:07.819Z,95873.00
2018-12-22T07:44:22.695Z,95864.00
2018-12-22T07:49:36.491Z,95890.00
2018-12-22T07:54:56.184Z,95868.00
2018-12-22T08:00:08.738Z,95877.00
2018-12-22T08:05:20.163Z,95839.00
2018-12-22T08:10:26.766Z,95844.00
2018-12-22T08:15:32.827Z,95871.00
2018-12-22T08:20:45.266Z,95881.00
2018-12-22T08:31:47.038Z,95907.00
2018-12-22T08:48:28.370Z,95988.00
2018-12-22T08:53:37.138Z,95973.00
2018-12-22T08:58:44.694Z,95944.00
2018-12-22T09:03:53.570Z,95942.00
2018-12-22T09:20:31.714Z,95991.00
2018-12-22T09:37:17.481Z,96001.00
2018-12-22T09:42:22.403Z,96010.00
2018-12-22T10:04:48.472Z,96003.00
2018-12-22T10:15:48.794Z,96009.00
2018-12-22T10:26:37.774Z,96012.00
2018-12-22T10:43:33.504Z,96029.00
2018-12-22T10:48:39.905Z,96025.00
2018-12-22T10:53:44.546Z,96051.00
2018-12-22T10:58:59.673Z,96038.00
2018-12-22T11:04:05.482Z,96044.00
2018-12-22T11:09:15.922Z,96039.00
2018-12-22T11:14:23.742Z,96037.00
2018-12-22T11:19:31.407Z,96047.00
2018-12-22T11:24:41.627Z,96021.00
2018-12-22T11:29:48.322Z,96053.00
2018-12-22T11:34:54.831Z,96055.00
2018-12-22T11:40:06.014Z,96052.00
2018-12-22T11:45:15.675Z,96030.00
2018-12-22T11:50:25.422Z,96072.00
2018-12-22T11:55:39.191Z,96064.00
2018-12-22T12:00:45.838Z,96080.00
2018-12-22T12:05:52.006Z,96074.00
2018-12-22T12:11:00.418Z,96091.00
2018-12-22T12:16:45.363Z,96089.00
2018-12-22T12:22:00.582Z,96076.00
2018-12-22T12:27:05.459Z,96094.00
2018-12-22T12:32:08.564Z,96103.00
2018-12-22T12:37:13.550Z,96106.00
2018-12-22T12:42:16.306Z,96115.00
2018-12-22T12:47:25.025Z,96122.00
2018-12-22T12:52:34.202Z,96145.00
2018-12-22T12:57:46.443Z,96124.00
2018-12-22T13:02:49.137Z,96142.00
2018-12-22T13:07:52.013Z,96116.00
2018-12-22T13:13:08.877Z,96115.00
2018-12-22T13:18:14.971Z,96122.00
2018-12-22T13:23:17.921Z,96133.00
2018-12-22T13:28:32.522Z,96180.00
2018-12-22T13:33:41.449Z,96145.00
2018-12-22T13:38:52.072Z,96159.00
2018-12-22T13:43:55.533Z,96146.00
2018-12-22T14:06:01.089Z,96199.00
2018-12-22T14:11:09.947Z,96214.00
2018-12-22T14:16:24.428Z,96205.00
2018-12-22T14:21:33.561Z,96215.00
2018-12-22T14:26:36.327Z,96229.00
2018-12-22T14:31:45.178Z,96252.00
2018-12-22T15:27:49.149Z,96322.00
2018-12-22T15:37:11.777Z,96354.00
2018-12-22T15:47:53.319Z,96329.00
2018-12-22T15:52:59.271Z,96346.00
2018-12-22T15:58:08.182Z,96358.00
2018-12-22T16:03:11.423Z,96360.00
2018-12-22T16:08:15.186Z,96370.00
2018-12-22T16:13:37.456Z,96375.00
2018-12-22T16:18:41.160Z,96381.00
2018-12-22T16:23:50.042Z,96390.00
2018-12-22T16:29:00.498Z,96398.00
2018-12-22T16:34:16.666Z,96401.00
2018-12-22T16:39:23.249Z,96393.00
2018-12-22T17:01:41.294Z,96414.00
2018-12-22T17:06:44.145Z,96417.00
2018-12-22T17:11:53.067Z,96428.00
2018-12-22T17:17:01.868Z,96419.00
2018-12-22T17:22:22.672Z,96427.00
2018-12-22T17:27:27.898Z,96435.00
2018-12-22T18:12:13.110Z,96476.00
2018-12-22T18:17:17.920Z,96493.00
2018-12-22T18:22:33.099Z,96503.00
2018-12-22T18:27:39.273Z,96500.00
2018-12-22T18:32:48.867Z,96520.00
2018-12-22T18:37:57.711Z,96529.00
2018-12-22T18:43:08.775Z,96522.00
2018-12-22T18:48:15.625Z,96521.00
2018-12-22T18:53:21.060Z,96529.00
2018-12-22T18:58:28.619Z,96541.00
2018-12-22T19:03:44.719Z,96536.00
2018-12-22T19:08:51.434Z,96538.00
2018-12-22T19:14:00.471Z,96549.00
2018-12-22T19:19:10.048Z,96542.00
2018-12-22T19:24:19.623Z,96558.00
2018-12-22T19:29:34.182Z,96560.00
2018-12-22T19:34:41.276Z,96565.00
2018-12-22T19:39:47.481Z,96566.00
2018-12-22T19:44:56.018Z,96556.00
2018-12-22T19:50:03.422Z,96563.00
2018-12-22T19:55:09.526Z,96577.00
2018-12-22T20:00:21.994Z,96583.00
2018-12-22T20:05:41.615Z,96576.00
2018-12-22T20:10:58.847Z,96591.00
2018-12-22T20:16:09.282Z,96595.00
2018-12-22T20:21:19.261Z,96608.00
2018-12-22T20:42:27.953Z,96553.00
2018-12-22T20:47:37.077Z,96615.00
2018-12-22T20:52:47.995Z,96615.00
2018-12-22T20:57:57.206Z,96604.00
2018-12-22T21:03:06.803Z,96599.00
2018-12-22T21:13:49.133Z,96605.00
2018-12-22T21:18:56.803Z,96620.00
2018-12-22T21:29:45.171Z,96647.00
2018-12-22T21:34:59.852Z,96657.00
2018-12-22T21:40:09.524Z,96659.00
2018-12-22T21:45:16.139Z,96651.00
2018-12-22T21:50:27.602Z,96678.00
2018-12-22T22:01:14.962Z,96668.00
2018-12-22T22:12:25.267Z,96654.00
2018-12-22T22:17:41.146Z,96662.00
2018-12-22T22:22:49.889Z,96660.00
2018-12-22T22:27:58.602Z,96667.00
2018-12-22T22:33:09.005Z,96665.00
2018-12-22T22:38:26.893Z,96661.00
2018-12-22T22:43:42.943Z,96667.00
2018-12-22T22:49:01.059Z,96658.00
2018-12-22T22:54:16.428Z,96661.00
2018-12-22T22:59:31.570Z,96658.00
2018-12-22T23:04:54.416Z,96671.00
2018-12-22T23:09:57.128Z,96678.00
2018-12-22T23:15:04.951Z,96690.00
2018-12-22T23:20:20.416Z,96673.00
2018-12-22T23:25:30.143Z,96676.00
2018-12-22T23:30:45.258Z,96681.00
2018-12-22T23:35:56.043Z,96681.00
2018-12-22T23:46:41.089Z,96692.00
2018-12-22T23:51:55.367Z,96701.00
2018-12-22T23:57:04.449Z,96710.00
